createdAt,value
2022-09-12T00:00:13.386Z,168.10
2022-09-12T00:01:13.461Z,159.00
2022-09-12T00:02:13.526Z,179.10
2022-09-12T00:03:13.501Z,183.80
2022-09-12T00:04:13.543Z,165.39
2022-09-12T00:05:13.579Z,152.30
2022-09-12T00:06:13.617Z,159.39
2022-09-12T00:07:13.653Z,176.69
2022-09-12T00:08:13.687Z,165.80
2022-09-12T00:09:13.728Z,177.10
2022-09-12T00:10:13.768Z,178.19
2022-09-12T00:11:13.804Z,180.30
2022-09-12T00:12:13.848Z,193.80
2022-09-12T00:13:13.888Z,176.19
2022-09-12T00:14:13.928Z,172.10
2022-09-12T00:15:13.972Z,171.10
2022-09-12T00:16:14.055Z,170.80
2022-09-12T00:17:14.059Z,176.30
2022-09-12T00:18:14.129Z,179.80
2022-09-12T00:19:14.150Z,183.80
2022-09-12T00:20:14.195Z,178.30
2022-09-12T00:21:14.251Z,179.10
2022-09-12T00:22:14.289Z,186.80
2022-09-12T00:23:14.338Z,185.89
2022-09-12T00:24:14.383Z,174.50
2022-09-12T00:25:14.430Z,195.80
2022-09-12T00:26:14.479Z,198.19
2022-09-12T00:27:14.528Z,199.30
2022-09-12T00:28:14.583Z,181.50
2022-09-12T00:29:14.632Z,170.89
2022-09-12T00:30:14.679Z,185.10
2022-09-12T00:31:14.840Z,182.80
2022-09-12T00:32:14.770Z,184.69
2022-09-12T00:33:14.812Z,202.89
2022-09-12T00:34:14.884Z,193.30
2022-09-12T00:35:14.905Z,197.19
2022-09-12T00:36:14.952Z,184.10
2022-09-12T00:37:15.001Z,200.60
2022-09-12T00:38:15.052Z,182.80
2022-09-12T00:39:15.100Z,176.30
2022-09-12T00:40:15.229Z,200.80
2022-09-12T00:41:15.187Z,168.80
2022-09-12T00:42:15.233Z,205.89
2022-09-12T00:43:15.283Z,177.19
2022-09-12T00:44:15.329Z,172.89
2022-09-12T00:45:15.372Z,176.00
2022-09-12T00:46:15.424Z,178.00
2022-09-12T00:47:15.473Z,191.30
2022-09-12T00:48:15.516Z,185.69
2022-09-12T00:49:15.564Z,183.50
2022-09-12T00:50:15.626Z,245.50
2022-09-12T00:51:15.644Z,192.80
2022-09-12T00:52:15.684Z,244.10
2022-09-12T00:53:15.729Z,211.39
2022-09-12T00:54:15.774Z,255.89
2022-09-12T00:55:15.827Z,239.10
2022-09-12T00:56:15.874Z,240.69
2022-09-12T00:57:15.912Z,241.69
2022-09-12T00:58:15.959Z,226.80
2022-09-12T00:59:16.001Z,227.39
2022-09-12T01:00:16.048Z,220.50
2022-09-12T01:01:16.163Z,196.50
2022-09-12T01:02:16.256Z,217.10
2022-09-12T01:03:16.174Z,229.19
2022-09-12T01:04:16.220Z,200.30
2022-09-12T01:05:16.266Z,230.69
2022-09-12T01:06:16.340Z,250.89
2022-09-12T01:07:16.362Z,282.79
2022-09-12T01:08:16.411Z,273.50
2022-09-12T01:09:16.464Z,295.39
2022-09-12T01:10:16.518Z,318.70
2022-09-12T01:11:16.569Z,315.60
2022-09-12T01:12:16.619Z,352.20
2022-09-12T01:13:16.670Z,354.89
2022-09-12T01:14:16.713Z,366.29
2022-09-12T01:15:16.764Z,382.10
2022-09-12T01:16:16.876Z,395.79
2022-09-12T01:17:16.864Z,399.79
2022-09-12T01:18:16.912Z,348.50
2022-09-12T01:19:16.966Z,334.50
2022-09-12T01:20:17.019Z,391.00
2022-09-12T01:21:17.064Z,367.00
2022-09-12T01:22:17.138Z,299.00
2022-09-12T01:23:17.167Z,261.29
2022-09-12T01:24:17.218Z,266.29
2022-09-12T01:25:17.264Z,286.20
2022-09-12T01:26:17.321Z,265.00
2022-09-12T01:27:17.377Z,261.20
2022-09-12T01:28:17.434Z,357.89
2022-09-12T01:29:17.488Z,379.39
2022-09-12T01:30:17.548Z,348.10
2022-09-12T01:31:17.590Z,325.89
2022-09-12T01:32:17.689Z,365.00
2022-09-12T01:33:17.704Z,319.70
2022-09-12T01:34:17.761Z,382.29
2022-09-12T01:35:17.819Z,390.29
2022-09-12T01:36:17.874Z,358.29
2022-09-12T01:37:17.924Z,359.89
2022-09-12T01:38:18.002Z,348.50
2022-09-12T01:39:18.034Z,391.89
2022-09-12T01:40:18.124Z,291.20
2022-09-12T01:41:18.142Z,314.70
2022-09-12T01:42:18.196Z,262.79
2022-09-12T01:43:18.255Z,253.39
2022-09-12T01:44:18.310Z,375.29
2022-09-12T01:45:18.366Z,334.60
2022-09-12T01:46:18.415Z,212.69
2022-09-12T01:47:18.472Z,231.00
2022-09-12T01:48:18.530Z,249.19
2022-09-12T01:49:18.593Z,234.50
2022-09-12T01:50:18.651Z,228.80
2022-09-12T01:51:18.707Z,297.50
2022-09-12T01:52:18.768Z,225.60
2022-09-12T01:53:18.822Z,224.19
2022-09-12T01:54:18.897Z,265.70
2022-09-12T01:55:18.924Z,295.29
2022-09-12T01:56:18.982Z,286.10
2022-09-12T01:57:19.039Z,307.39
2022-09-12T01:58:19.095Z,283.10
2022-09-12T01:59:19.148Z,335.79
2022-09-12T02:00:19.200Z,346.20
2022-09-12T02:01:19.279Z,306.39
2022-09-12T02:02:19.363Z,330.39
2022-09-12T02:03:19.358Z,369.50
2022-09-12T02:04:19.410Z,332.89
2022-09-12T02:05:19.464Z,278.60
2022-09-12T02:06:19.519Z,441.50
2022-09-12T02:07:19.570Z,328.50
2022-09-12T02:08:19.625Z,338.50
2022-09-12T02:09:19.688Z,396.79
2022-09-12T02:10:19.757Z,425.70
2022-09-12T02:11:19.790Z,375.29
2022-09-12T02:12:19.838Z,423.10
2022-09-12T02:13:19.887Z,405.39
2022-09-12T02:14:19.941Z,434.00
2022-09-12T02:15:19.993Z,348.70
2022-09-12T02:16:20.126Z,452.89
2022-09-12T02:17:20.105Z,340.79
2022-09-12T02:18:20.164Z,431.39
2022-09-12T02:19:20.217Z,434.60
2022-09-12T02:20:44.066Z,374.00
2022-09-12T02:21:21.336Z,409.60
2022-09-12T02:22:20.380Z,450.10
2022-09-12T02:23:20.441Z,343.00
2022-09-12T02:24:20.492Z,423.70
2022-09-12T02:25:20.553Z,428.10
2022-09-12T02:26:20.632Z,417.50
2022-09-12T02:27:20.667Z,423.79
2022-09-12T02:28:20.720Z,352.20
2022-09-12T02:29:20.773Z,362.39
2022-09-12T02:30:20.970Z,371.70
2022-09-12T02:31:20.886Z,324.00
2022-09-12T02:32:20.937Z,383.00
2022-09-12T02:33:20.987Z,449.79
2022-09-12T02:34:21.044Z,437.29
2022-09-12T02:35:21.100Z,391.29
2022-09-12T02:36:21.158Z,351.39
2022-09-12T02:37:21.213Z,331.20
2022-09-12T02:38:21.267Z,403.39
2022-09-12T02:39:21.334Z,332.79
2022-09-12T02:40:21.456Z,486.29
2022-09-12T02:41:21.440Z,369.10
2022-09-12T02:42:21.523Z,373.79
2022-09-12T02:43:21.550Z,344.70
2022-09-12T02:44:21.607Z,386.29
2022-09-12T02:45:21.660Z,313.39
2022-09-12T02:46:21.709Z,459.60
2022-09-12T02:47:21.767Z,385.79
2022-09-12T02:48:21.824Z,410.20
2022-09-12T02:49:21.881Z,379.10
2022-09-12T02:50:21.938Z,395.60
2022-09-12T02:51:23.775Z,364.89
2022-09-12T02:52:22.049Z,367.10
2022-09-12T02:53:22.106Z,334.50
2022-09-12T02:54:22.158Z,344.00
2022-09-12T02:55:22.215Z,337.20
2022-09-12T02:56:22.273Z,333.50
2022-09-12T02:57:23.226Z,324.60
2022-09-12T02:58:22.412Z,329.70
2022-09-12T02:59:22.439Z,360.29
2022-09-12T03:00:22.491Z,340.10
2022-09-12T03:01:22.623Z,329.60
2022-09-12T03:02:22.642Z,323.20
2022-09-12T03:03:22.661Z,330.60
2022-09-12T03:04:22.721Z,339.10
2022-09-12T03:05:22.776Z,308.50
2022-09-12T03:06:22.836Z,321.50
2022-09-12T03:07:22.891Z,335.10
2022-09-12T03:08:22.947Z,308.50
2022-09-12T03:09:23.003Z,328.50
2022-09-12T03:10:23.055Z,302.60
2022-09-12T03:11:23.107Z,293.60
2022-09-12T03:12:23.159Z,300.70
2022-09-12T03:13:23.214Z,299.00
2022-09-12T03:14:23.293Z,286.60
2022-09-12T03:15:23.328Z,308.39
2022-09-12T03:16:23.416Z,297.70
2022-09-12T03:17:23.448Z,291.29
2022-09-12T03:18:23.506Z,270.50
2022-09-12T03:19:23.565Z,306.39
2022-09-12T03:20:23.627Z,309.00
2022-09-12T03:21:23.689Z,292.10
2022-09-12T03:22:23.746Z,278.10
2022-09-12T03:23:23.896Z,333.10
2022-09-12T03:24:23.864Z,349.10
2022-09-12T03:25:23.923Z,359.60
2022-09-12T03:26:23.976Z,293.60
2022-09-12T03:27:24.029Z,289.50
2022-09-12T03:28:24.151Z,329.39
2022-09-12T03:29:24.145Z,379.79
2022-09-12T03:30:24.244Z,315.39
2022-09-12T03:31:24.255Z,412.70
2022-09-12T03:32:24.314Z,346.89
2022-09-12T03:33:24.366Z,394.39
2022-09-12T03:34:24.422Z,370.00
2022-09-12T03:35:24.475Z,382.50
2022-09-12T03:36:24.531Z,329.79
2022-09-12T03:37:24.589Z,348.89
2022-09-12T03:38:24.647Z,432.29
2022-09-12T03:39:24.701Z,384.89
2022-09-12T03:40:24.761Z,375.79
2022-09-12T03:41:24.819Z,483.89
2022-09-12T03:42:24.878Z,466.70
2022-09-12T03:43:24.937Z,487.00
2022-09-12T03:44:24.999Z,489.60
2022-09-12T03:45:25.163Z,492.79
2022-09-12T03:46:25.150Z,507.39
2022-09-12T03:47:25.188Z,382.60
2022-09-12T03:48:25.257Z,520.50
2022-09-12T03:49:25.309Z,510.79
2022-09-12T03:50:25.374Z,398.10
2022-09-12T03:51:25.436Z,433.20
2022-09-12T03:52:25.502Z,441.70
2022-09-12T03:53:25.568Z,460.79
2022-09-12T03:54:25.639Z,502.39
2022-09-12T03:55:25.694Z,485.70
2022-09-12T03:56:25.754Z,433.50
2022-09-12T03:57:25.816Z,495.89
2022-09-12T03:58:25.875Z,326.00
2022-09-12T03:59:25.941Z,334.10
2022-09-12T04:00:26.006Z,421.10
2022-09-12T04:01:26.117Z,399.89
2022-09-12T04:02:26.175Z,492.60
2022-09-12T04:03:26.190Z,446.79
2022-09-12T04:04:26.251Z,519.90
2022-09-12T04:05:26.316Z,391.89
2022-09-12T04:06:26.382Z,426.10
2022-09-12T04:07:26.452Z,441.79
2022-09-12T04:08:26.513Z,455.00
2022-09-12T04:09:26.577Z,378.50
2022-09-12T04:10:26.642Z,381.20
2022-09-12T04:11:26.708Z,423.10
2022-09-12T04:12:26.773Z,406.39
2022-09-12T04:13:26.835Z,521.70
2022-09-12T04:14:26.899Z,432.50
2022-09-12T04:15:26.962Z,446.20
2022-09-12T04:16:27.075Z,453.10
2022-09-12T04:17:27.085Z,364.79
2022-09-12T04:18:27.169Z,419.60
2022-09-12T04:19:27.204Z,467.29
2022-09-12T04:20:27.269Z,479.39
2022-09-12T04:21:27.325Z,469.60
2022-09-12T04:22:27.385Z,342.60
2022-09-12T04:23:27.445Z,364.89
2022-09-12T04:24:27.498Z,331.00
2022-09-12T04:25:27.552Z,356.00
2022-09-12T04:26:27.611Z,355.60
2022-09-12T04:27:27.671Z,416.20
2022-09-12T04:28:27.732Z,465.79
2022-09-12T04:29:27.791Z,339.50
2022-09-12T04:30:27.898Z,343.00
2022-09-12T04:31:27.917Z,341.00
2022-09-12T04:32:27.977Z,339.79
2022-09-12T04:33:28.030Z,330.60
2022-09-12T04:34:28.115Z,346.39
2022-09-12T04:35:28.146Z,466.29
2022-09-12T04:36:28.208Z,384.50
2022-09-12T04:37:28.275Z,463.20
2022-09-12T04:38:28.339Z,446.60
2022-09-12T04:39:28.402Z,467.60
2022-09-12T04:40:28.464Z,540.70
2022-09-12T04:41:28.530Z,554.09
2022-09-12T04:42:28.591Z,472.39
2022-09-12T04:43:28.656Z,657.70
2022-09-12T04:44:28.721Z,490.79
2022-09-12T04:45:28.790Z,470.50
2022-09-12T04:46:28.853Z,390.79
2022-09-12T04:47:28.919Z,541.00
2022-09-12T04:48:28.987Z,461.00
2022-09-12T04:49:29.055Z,510.20
2022-09-12T04:50:29.141Z,511.29
2022-09-12T04:51:29.177Z,415.60
2022-09-12T04:52:29.238Z,443.20
2022-09-12T04:53:29.296Z,356.29
2022-09-12T04:54:29.354Z,273.60
2022-09-12T04:55:29.418Z,268.89
2022-09-12T04:56:29.485Z,266.20
2022-09-12T04:57:29.550Z,268.29
2022-09-12T04:58:29.609Z,312.79
2022-09-12T04:59:29.674Z,290.10
2022-09-12T05:00:29.736Z,278.79
2022-09-12T05:01:29.848Z,284.00
2022-09-12T05:02:29.893Z,350.70
2022-09-12T05:03:29.910Z,350.60
2022-09-12T05:04:29.968Z,336.39
2022-09-12T05:05:34.763Z,315.10
2022-09-12T05:06:30.110Z,343.79
2022-09-12T05:07:30.145Z,285.50
2022-09-12T05:08:30.209Z,335.00
2022-09-12T05:09:30.268Z,451.60
2022-09-12T05:10:30.346Z,405.10
2022-09-12T05:11:46.798Z,378.10
2022-09-12T05:12:31.473Z,338.10
2022-09-12T05:13:30.507Z,288.00
2022-09-12T05:14:30.572Z,337.79
2022-09-12T05:15:30.628Z,361.60
2022-09-12T05:16:30.726Z,337.20
2022-09-12T05:17:30.746Z,349.70
2022-09-12T05:18:30.803Z,337.39
2022-09-12T05:19:30.863Z,243.19
2022-09-12T05:20:30.916Z,259.79
2022-09-12T05:21:30.995Z,255.60
2022-09-12T05:22:31.025Z,361.50
2022-09-12T05:23:31.079Z,270.70
2022-09-12T05:24:31.139Z,247.80
2022-09-12T05:25:31.184Z,229.89
2022-09-12T05:26:31.242Z,248.39
2022-09-12T05:27:31.303Z,212.60
2022-09-12T05:28:31.354Z,220.39
2022-09-12T05:29:31.413Z,211.50
2022-09-12T05:30:31.548Z,210.89
2022-09-12T05:31:31.528Z,189.69
2022-09-12T05:32:31.576Z,182.39
2022-09-12T05:33:31.625Z,196.10
2022-09-12T05:34:31.681Z,189.60
2022-09-12T05:35:31.738Z,197.00
2022-09-12T05:36:31.793Z,151.69
2022-09-12T05:37:31.856Z,182.80
2022-09-12T05:38:31.881Z,168.39
2022-09-12T05:39:31.930Z,161.89
2022-09-12T05:40:31.980Z,173.69
2022-09-12T05:41:32.028Z,153.89
2022-09-12T05:42:32.070Z,153.39
2022-09-12T05:43:32.115Z,164.69
2022-09-12T05:44:32.163Z,150.89
2022-09-12T05:45:32.245Z,146.89
2022-09-12T05:46:32.257Z,153.19
2022-09-12T05:47:32.289Z,144.39
2022-09-12T05:48:32.329Z,138.60
2022-09-12T05:49:32.376Z,136.69
2022-09-12T05:50:32.440Z,127.09
2022-09-12T05:51:32.463Z,135.50
2022-09-12T05:52:32.503Z,123.80
2022-09-12T05:53:32.572Z,123.09
2022-09-12T05:54:32.588Z,117.09
2022-09-12T05:55:32.624Z,119.30
2022-09-12T05:56:32.661Z,111.09
2022-09-12T05:57:32.697Z,101.40
2022-09-12T05:58:32.736Z,106.59
2022-09-12T05:59:32.772Z,102.90
2022-09-12T06:00:33.628Z,98.59
2022-09-12T06:01:32.871Z,90.19
2022-09-12T06:02:32.905Z,94.09
2022-09-12T06:03:32.921Z,83.69
2022-09-12T06:04:32.962Z,76.00
2022-09-12T06:05:32.996Z,79.69
2022-09-12T06:06:33.029Z,72.40
2022-09-12T06:07:33.065Z,74.19
2022-09-12T06:08:33.102Z,64.90
2022-09-12T06:09:33.160Z,59.29
2022-09-12T06:10:33.167Z,54.20
2022-09-12T06:11:33.203Z,51.90
2022-09-12T06:12:33.231Z,42.59
2022-09-12T06:13:33.268Z,39.50
2022-09-12T06:14:33.300Z,39.09
2022-09-12T06:15:33.334Z,45.00
2022-09-12T06:16:33.462Z,39.00
2022-09-12T06:17:33.405Z,36.59
2022-09-12T06:18:33.428Z,33.00
2022-09-12T06:19:33.465Z,33.09
2022-09-12T06:20:33.494Z,33.90
2022-09-12T06:21:33.521Z,30.29
2022-09-12T06:22:33.550Z,32.29
2022-09-12T06:23:33.669Z,30.50
2022-09-12T06:24:33.598Z,28.79
2022-09-12T06:25:33.647Z,34.20
2022-09-12T06:26:33.650Z,31.20
2022-09-12T06:27:33.676Z,28.89
2022-09-12T06:28:33.700Z,26.60
2022-09-12T06:29:33.721Z,25.70
2022-09-12T06:30:33.809Z,25.20
2022-09-12T06:31:33.769Z,26.39
2022-09-12T06:32:33.785Z,25.00
2022-09-12T06:33:33.809Z,25.29
2022-09-12T06:34:33.854Z,22.89
2022-09-12T06:35:33.837Z,25.00
2022-09-12T06:36:33.849Z,23.20
2022-09-12T06:37:33.861Z,24.39
2022-09-12T06:38:33.876Z,24.00
2022-09-12T06:39:33.893Z,20.89
2022-09-12T06:40:33.905Z,26.39
2022-09-12T06:41:33.946Z,26.10
2022-09-12T06:42:33.934Z,24.29
2022-09-12T06:43:33.947Z,22.20
2022-09-12T06:44:33.952Z,23.60
2022-09-12T06:45:33.963Z,20.00
2022-09-12T06:46:33.972Z,23.70
2022-09-12T06:47:33.979Z,23.70
2022-09-12T06:48:36.414Z,20.20
2022-09-12T06:49:33.990Z,18.39
2022-09-12T06:50:33.990Z,21.10
2022-09-12T06:51:33.989Z,19.79
2022-09-12T06:52:33.992Z,19.39
2022-09-12T06:53:34.037Z,19.10
2022-09-12T06:54:33.982Z,18.79
2022-09-12T06:55:33.983Z,18.50
2022-09-12T06:56:33.969Z,18.89
2022-09-12T06:57:33.989Z,18.29
2022-09-12T06:58:33.989Z,16.79
2022-09-12T06:59:33.951Z,17.29
2022-09-12T07:00:33.942Z,15.80
2022-09-12T07:01:34.013Z,14.39
2022-09-12T07:02:33.945Z,13.89
2022-09-12T07:03:33.894Z,14.60
2022-09-12T07:04:33.883Z,13.89
2022-09-12T07:05:33.867Z,13.50
2022-09-12T07:06:33.846Z,16.10
2022-09-12T07:07:33.830Z,14.30
2022-09-12T07:08:33.886Z,16.00
2022-09-12T07:09:33.793Z,13.69
2022-09-12T07:10:33.774Z,17.00
2022-09-12T07:11:33.760Z,16.10
2022-09-12T07:12:33.740Z,13.89
2022-09-12T07:13:33.743Z,13.60
2022-09-12T07:14:33.701Z,16.50
2022-09-12T07:15:33.679Z,15.89
2022-09-12T07:16:33.686Z,14.89
2022-09-12T07:17:33.640Z,13.80
2022-09-12T07:18:33.618Z,17.29
2022-09-12T07:19:33.596Z,14.80
2022-09-12T07:20:33.572Z,14.39
2022-09-12T07:21:33.546Z,12.69
2022-09-12T07:22:33.519Z,13.60
2022-09-12T07:23:33.498Z,15.89
2022-09-12T07:24:33.471Z,15.10
2022-09-12T07:25:33.445Z,13.69
2022-09-12T07:26:33.421Z,12.69
2022-09-12T07:27:33.397Z,13.50
2022-09-12T07:28:33.374Z,14.89
2022-09-12T07:29:37.210Z,16.70
2022-09-12T07:30:33.360Z,12.69
2022-09-12T07:31:33.287Z,14.60
2022-09-12T07:32:33.263Z,16.89
2022-09-12T07:33:33.236Z,14.60
2022-09-12T07:34:33.209Z,13.80
2022-09-12T07:35:33.175Z,14.10
2022-09-12T07:36:33.140Z,14.89
2022-09-12T07:37:33.100Z,12.60
2022-09-12T07:38:33.063Z,13.30
2022-09-12T07:39:33.030Z,12.39
2022-09-12T07:40:32.992Z,15.10
2022-09-12T07:41:32.958Z,13.69
2022-09-12T07:42:32.927Z,16.10
2022-09-12T07:43:32.890Z,14.60
2022-09-12T07:44:32.856Z,15.30
2022-09-12T07:45:32.838Z,14.60
2022-09-12T07:46:32.782Z,14.60
2022-09-12T07:47:32.749Z,15.60
2022-09-12T07:48:32.714Z,14.89
2022-09-12T07:49:32.679Z,18.70
2022-09-12T07:50:32.649Z,13.39
2022-09-12T07:51:32.614Z,14.19
2022-09-12T07:52:32.581Z,18.29
2022-09-12T07:53:32.548Z,13.39
2022-09-12T07:54:32.515Z,16.20
2022-09-12T07:55:32.482Z,16.00
2022-09-12T07:56:36.926Z,14.60
2022-09-12T07:57:32.416Z,14.69
2022-09-12T07:58:32.384Z,14.19
2022-09-12T07:59:51.276Z,14.00
2022-09-12T08:00:33.330Z,15.39
2022-09-12T08:01:32.353Z,15.30
2022-09-12T08:02:32.291Z,16.39
2022-09-12T08:03:32.223Z,16.79
2022-09-12T08:04:32.192Z,16.50
2022-09-12T08:05:32.161Z,15.60
2022-09-12T08:06:32.133Z,16.20
2022-09-12T08:07:32.100Z,18.10
2022-09-12T08:08:32.078Z,14.60
2022-09-12T08:09:32.041Z,16.70
2022-09-12T08:10:32.010Z,13.19
2022-09-12T08:11:31.979Z,13.50
2022-09-12T08:12:31.947Z,13.60
2022-09-12T08:13:31.913Z,14.69
2022-09-12T08:14:31.878Z,14.50
2022-09-12T08:15:31.901Z,15.00
2022-09-12T08:16:31.810Z,15.50
2022-09-12T08:17:31.798Z,13.80
2022-09-12T08:18:31.749Z,14.60
2022-09-12T08:19:31.709Z,16.60
2022-09-12T08:20:31.674Z,16.50
2022-09-12T08:21:31.639Z,16.79
2022-09-12T08:22:31.605Z,13.39
2022-09-12T08:23:31.568Z,14.19
2022-09-12T08:24:31.530Z,17.20
2022-09-12T08:25:31.488Z,15.69
2022-09-12T08:26:31.445Z,18.00
2022-09-12T08:27:31.404Z,17.00
2022-09-12T08:28:31.364Z,16.50
2022-09-12T08:29:31.319Z,15.50
2022-09-12T08:30:31.345Z,13.89
2022-09-12T08:31:31.236Z,15.50
2022-09-12T08:32:31.185Z,15.60
2022-09-12T08:33:31.159Z,15.19
2022-09-12T08:34:31.082Z,12.50
2022-09-12T08:35:31.033Z,17.10
2022-09-12T08:36:30.981Z,15.69
2022-09-12T08:37:30.938Z,13.00
2022-09-12T08:38:30.891Z,15.10
2022-09-12T08:39:30.832Z,14.89
2022-09-12T08:40:30.775Z,15.50
2022-09-12T08:41:30.721Z,15.10
2022-09-12T08:42:30.666Z,15.80
2022-09-12T08:43:30.616Z,13.00
2022-09-12T08:44:30.567Z,13.39
2022-09-12T08:45:30.505Z,15.39
2022-09-12T08:46:30.465Z,14.19
2022-09-12T08:47:30.390Z,14.89
2022-09-12T08:48:30.334Z,13.30
2022-09-12T08:49:30.307Z,14.80
2022-09-12T08:50:30.212Z,15.30
2022-09-12T08:51:30.153Z,16.60
2022-09-12T08:52:30.096Z,14.80
2022-09-12T08:53:30.035Z,14.50
2022-09-12T08:54:29.972Z,13.69
2022-09-12T08:55:29.910Z,15.80
2022-09-12T08:56:31.764Z,16.39
2022-09-12T08:57:29.774Z,15.00
2022-09-12T08:58:29.709Z,13.00
2022-09-12T08:59:29.632Z,14.80
2022-09-12T09:00:29.564Z,17.10
2022-09-12T09:01:29.519Z,13.80
2022-09-12T09:02:29.511Z,14.30
2022-09-12T09:03:29.337Z,13.69
2022-09-12T09:04:29.255Z,13.00
2022-09-12T09:05:29.197Z,13.39
2022-09-12T09:06:29.095Z,14.69
2022-09-12T09:07:29.014Z,14.89
2022-09-12T09:08:28.928Z,16.29
2022-09-12T09:09:28.836Z,14.69
2022-09-12T09:10:28.746Z,13.30
2022-09-12T09:11:28.645Z,13.80
2022-09-12T09:12:28.550Z,16.79
2022-09-12T09:13:28.456Z,16.50
2022-09-12T09:14:28.355Z,17.00
2022-09-12T09:15:28.332Z,14.50
2022-09-12T09:16:28.150Z,12.10
2022-09-12T09:17:28.038Z,12.00
2022-09-12T09:18:27.924Z,12.60
2022-09-12T09:19:27.798Z,13.10
2022-09-12T09:20:27.671Z,13.39
2022-09-12T09:21:27.562Z,13.19
2022-09-12T09:22:27.410Z,14.80
2022-09-12T09:23:27.277Z,14.00
2022-09-12T09:24:27.148Z,14.00
2022-09-12T09:25:27.022Z,12.50
2022-09-12T09:26:26.890Z,13.89
2022-09-12T09:27:40.486Z,12.30
2022-09-12T09:28:27.640Z,12.50
2022-09-12T09:29:26.512Z,14.89
2022-09-12T09:30:26.391Z,14.39
2022-09-12T09:31:26.305Z,13.30
2022-09-12T09:32:26.153Z,15.00
2022-09-12T09:33:26.039Z,14.00
2022-09-12T09:34:25.922Z,11.60
2022-09-12T09:35:25.811Z,14.39
2022-09-12T09:36:25.698Z,16.79
2022-09-12T09:37:25.612Z,14.39
2022-09-12T09:38:25.484Z,13.80
2022-09-12T09:39:25.364Z,13.50
2022-09-12T09:40:25.246Z,15.69
2022-09-12T09:41:25.132Z,13.89
2022-09-12T09:42:25.014Z,14.10
2022-09-12T09:43:24.889Z,16.70
2022-09-12T09:44:24.773Z,12.89
2022-09-12T09:45:24.645Z,16.10
2022-09-12T09:46:24.576Z,12.39
2022-09-12T09:47:24.373Z,16.20
2022-09-12T09:48:24.242Z,11.80
2022-09-12T09:49:24.100Z,12.69
2022-09-12T09:50:23.959Z,12.80
2022-09-12T09:51:23.814Z,14.39
2022-09-12T09:52:23.660Z,13.60
2022-09-12T09:53:23.646Z,13.50
2022-09-12T09:54:23.329Z,13.69
2022-09-12T09:55:23.158Z,14.39
2022-09-12T09:56:23.336Z,14.10
2022-09-12T09:57:22.800Z,15.60
2022-09-12T09:58:22.613Z,13.69
2022-09-12T09:59:22.421Z,15.60
2022-09-12T10:00:22.226Z,13.60
2022-09-12T10:01:22.062Z,13.39
2022-09-12T10:02:24.033Z,14.80
2022-09-12T10:03:21.623Z,15.60
2022-09-12T10:04:21.417Z,11.80
2022-09-12T10:05:21.199Z,12.50
2022-09-12T10:06:21.000Z,13.80
2022-09-12T10:07:20.785Z,13.69
2022-09-12T10:08:20.597Z,14.89
2022-09-12T10:09:20.397Z,14.10
2022-09-12T10:10:20.177Z,15.89
2022-09-12T10:11:19.977Z,12.60
2022-09-12T10:12:19.778Z,15.39
2022-09-12T10:13:19.589Z,15.19
2022-09-12T10:14:19.408Z,13.60
2022-09-12T10:15:19.218Z,16.10
2022-09-12T10:16:19.106Z,15.00
2022-09-12T10:17:18.866Z,15.89
2022-09-12T10:18:18.693Z,17.20
2022-09-12T10:19:18.515Z,16.89
2022-09-12T10:20:21.506Z,15.10
2022-09-12T10:21:18.162Z,16.29
2022-09-12T10:22:17.979Z,17.10
2022-09-12T10:23:17.797Z,14.69
2022-09-12T10:24:17.609Z,16.50
2022-09-12T10:25:17.444Z,17.29
2022-09-12T10:26:17.226Z,14.50
2022-09-12T10:27:17.031Z,16.60
2022-09-12T10:28:16.834Z,17.20
2022-09-12T10:29:16.634Z,14.69
2022-09-12T10:30:16.436Z,14.30
2022-09-12T10:31:16.321Z,15.19
2022-09-12T10:32:16.033Z,15.69
2022-09-12T10:33:15.817Z,16.00
2022-09-12T10:34:15.605Z,15.50
2022-09-12T10:35:15.390Z,16.20
2022-09-12T10:36:15.176Z,14.00
2022-09-12T10:37:14.965Z,12.60
2022-09-12T10:38:14.753Z,12.89
2022-09-12T10:39:14.538Z,15.39
2022-09-12T10:40:14.450Z,13.80
2022-09-12T10:41:14.121Z,13.00
2022-09-12T10:42:13.875Z,14.10
2022-09-12T10:43:13.647Z,15.69
2022-09-12T10:44:13.415Z,17.00
2022-09-12T10:45:13.186Z,15.89
2022-09-12T10:46:13.076Z,13.30
2022-09-12T10:47:12.714Z,12.00
2022-09-12T10:48:12.482Z,12.69
2022-09-12T10:49:12.254Z,13.50
2022-09-12T10:50:22.169Z,13.19
2022-09-12T10:51:11.777Z,16.00
2022-09-12T10:52:11.538Z,13.69
2022-09-12T10:53:11.292Z,11.80
2022-09-12T10:54:11.051Z,13.10
2022-09-12T10:55:10.807Z,14.80
2022-09-12T10:56:10.557Z,13.80
2022-09-12T10:57:10.336Z,13.69
2022-09-12T10:58:10.061Z,14.00
2022-09-12T10:59:09.816Z,14.50
2022-09-12T11:00:09.561Z,14.50
2022-09-12T11:01:09.380Z,13.69
2022-09-12T11:02:09.125Z,15.89
2022-09-12T11:03:08.808Z,10.50
2022-09-12T11:04:08.554Z,10.39
2022-09-12T11:05:08.307Z,10.19
2022-09-12T11:06:08.071Z,10.50
2022-09-12T11:07:07.795Z,9.80
2022-09-12T11:08:07.543Z,13.60
2022-09-12T11:09:07.293Z,11.19
2022-09-12T11:10:07.046Z,12.30
2022-09-12T11:11:06.796Z,13.50
2022-09-12T11:12:06.548Z,13.39
2022-09-12T11:13:06.323Z,12.39
2022-09-12T11:14:06.049Z,12.60
2022-09-12T11:15:05.799Z,10.50
2022-09-12T11:16:05.770Z,10.69
2022-09-12T11:17:05.303Z,12.30
2022-09-12T11:18:05.052Z,10.80
2022-09-12T11:19:04.801Z,11.00
2022-09-12T11:20:04.548Z,8.69
2022-09-12T11:21:04.288Z,7.80
2022-09-12T11:22:04.030Z,6.50
2022-09-12T11:23:03.770Z,7.80
2022-09-12T11:24:03.510Z,10.19
2022-09-12T11:25:03.249Z,7.90
2022-09-12T11:26:03.010Z,12.50
2022-09-12T11:27:02.734Z,9.50
2022-09-12T11:28:02.473Z,10.30
2022-09-12T11:29:02.239Z,10.60
2022-09-12T11:30:01.951Z,12.69
2022-09-12T11:31:01.759Z,9.19
2022-09-12T11:32:01.427Z,8.89
2022-09-12T11:33:01.161Z,9.39
2022-09-12T11:34:00.891Z,9.10
2022-09-12T11:35:00.624Z,10.69
2022-09-12T11:36:00.357Z,7.40
2022-09-12T11:37:00.100Z,7.19
2022-09-12T11:37:59.843Z,9.39
2022-09-12T11:38:59.586Z,8.89
2022-09-12T11:39:59.481Z,9.30
2022-09-12T11:40:59.095Z,9.39
2022-09-12T11:41:58.865Z,6.90
2022-09-12T11:42:58.646Z,7.80
2022-09-12T11:43:58.425Z,7.09
2022-09-12T11:44:58.214Z,5.59
2022-09-12T11:45:57.988Z,7.50
2022-09-12T11:46:57.715Z,6.40
2022-09-12T11:47:57.472Z,7.30
2022-09-12T11:48:57.225Z,6.59
2022-09-12T11:49:56.975Z,6.09
2022-09-12T11:50:56.718Z,6.40
2022-09-12T11:51:56.464Z,8.19
2022-09-12T11:52:56.201Z,8.80
2022-09-12T11:53:55.944Z,7.69
2022-09-12T11:54:55.686Z,9.10
2022-09-12T11:55:55.427Z,10.80
2022-09-12T11:56:55.164Z,6.90
2022-09-12T11:57:54.909Z,5.80
2022-09-12T11:58:54.668Z,4.40
2022-09-12T11:59:54.428Z,5.59
2022-09-12T12:00:54.215Z,5.00
2022-09-12T12:01:53.933Z,8.00
2022-09-12T12:02:53.676Z,5.19
2022-09-12T12:03:53.459Z,4.50
2022-09-12T12:04:53.162Z,4.69
2022-09-12T12:05:52.905Z,6.50
2022-09-12T12:06:52.638Z,5.40
2022-09-12T12:07:52.369Z,7.69
2022-09-12T12:08:52.100Z,6.50
2022-09-12T12:09:51.916Z,7.80
2022-09-12T12:10:51.557Z,7.59
2022-09-12T12:11:51.292Z,9.80
2022-09-12T12:12:51.028Z,9.89
2022-09-12T12:13:50.760Z,7.00
2022-09-12T12:14:50.493Z,7.19
2022-09-12T12:15:50.283Z,5.30
2022-09-12T12:16:49.974Z,9.50
2022-09-12T12:17:49.673Z,8.60
2022-09-12T12:18:49.408Z,11.19
2022-09-12T12:19:49.160Z,8.00
2022-09-12T12:20:48.926Z,8.10
2022-09-12T12:21:48.684Z,7.40
2022-09-12T12:22:48.436Z,7.09
2022-09-12T12:23:48.183Z,8.39
2022-09-12T12:24:47.921Z,7.09
2022-09-12T12:25:47.655Z,8.10
2022-09-12T12:26:47.382Z,6.40
2022-09-12T12:27:47.110Z,9.50
2022-09-12T12:28:47.178Z,9.00
2022-09-12T12:29:46.615Z,8.89
2022-09-12T12:30:46.323Z,8.10
2022-09-12T12:31:45.988Z,6.00
2022-09-12T12:32:45.729Z,7.69
2022-09-12T12:33:45.420Z,6.90
2022-09-12T12:34:45.132Z,7.19
2022-09-12T12:35:44.843Z,7.90
2022-09-12T12:36:44.546Z,5.50
2022-09-12T12:37:44.255Z,6.19
2022-09-12T12:38:43.969Z,6.50
2022-09-12T12:39:43.837Z,5.50
2022-09-12T12:40:43.404Z,5.40
2022-09-12T12:41:43.116Z,6.90
2022-09-12T12:42:42.827Z,6.40